createdAt,value
2018-02-04T00:00:48.857Z,-0.90
2018-02-04T00:03:16.811Z,-0.90
2018-02-04T00:05:44.876Z,-0.90
2018-02-04T00:08:12.765Z,-0.90
2018-02-04T00:10:40.941Z,-0.90
2018-02-04T00:13:08.808Z,-0.90
2018-02-04T00:15:36.878Z,-0.90
2018-02-04T00:18:04.713Z,-1.00
2018-02-04T00:20:32.573Z,-0.90
2018-02-04T00:23:00.416Z,-0.90
2018-02-04T00:25:29.112Z,-0.90
2018-02-04T00:27:58.183Z,-0.90
2018-02-04T00:30:26.026Z,-1.00
2018-02-04T00:32:53.893Z,-0.90
2018-02-04T00:35:21.861Z,-0.90
2018-02-04T00:37:49.859Z,-0.90
2018-02-04T00:40:17.701Z,-0.90
2018-02-04T00:42:45.769Z,-0.90
2018-02-04T00:45:13.924Z,-0.90
2018-02-04T00:47:41.772Z,-0.90
2018-02-04T00:50:09.809Z,-0.90
2018-02-04T00:52:38.961Z,-0.90
2018-02-04T00:55:07.249Z,-0.90
2018-02-04T00:57:35.124Z,-0.90
2018-02-04T01:00:03.193Z,-0.90
2018-02-04T01:02:31.164Z,-0.90
2018-02-04T01:04:59.409Z,-0.90
2018-02-04T01:07:27.409Z,-0.90
2018-02-04T01:09:55.685Z,-0.80
2018-02-04T01:12:23.758Z,-0.80
2018-02-04T01:14:52.036Z,-0.80
2018-02-04T01:17:19.900Z,-0.80
2018-02-04T01:19:47.933Z,-0.70
2018-02-04T01:22:16.246Z,-0.70
2018-02-04T01:24:44.115Z,-0.80
2018-02-04T01:27:12.085Z,-0.80
2018-02-04T01:29:40.417Z,-0.80
2018-02-04T01:32:08.331Z,-0.90
2018-02-04T01:34:36.595Z,-0.90
2018-02-04T01:37:04.577Z,-0.90
2018-02-04T01:39:32.763Z,-0.90
2018-02-04T01:42:00.721Z,-0.90
2018-02-04T01:44:28.588Z,-0.90
2018-02-04T01:46:56.637Z,-0.90
2018-02-04T01:49:24.709Z,-0.80
2018-02-04T01:51:52.905Z,-0.80
2018-02-04T01:54:21.067Z,-0.80
2018-02-04T01:56:48.988Z,-0.80
2018-02-04T01:59:17.788Z,-0.80
2018-02-04T02:01:45.908Z,-0.80
2018-02-04T02:04:13.878Z,-0.80
2018-02-04T02:06:42.153Z,-0.80
2018-02-04T02:09:10.271Z,-0.90
2018-02-04T02:11:39.013Z,-0.90
2018-02-04T02:14:06.983Z,-0.90
2018-02-04T02:16:34.852Z,-0.90
2018-02-04T02:19:03.024Z,-0.90
2018-02-04T02:21:31.049Z,-1.00
2018-02-04T02:23:58.971Z,-1.00
2018-02-04T02:26:26.931Z,-1.00
2018-02-04T02:28:54.903Z,-1.00
2018-02-04T02:31:22.869Z,-1.00
2018-02-04T02:33:50.843Z,-1.00
2018-02-04T02:36:18.808Z,-1.00
2018-02-04T02:38:46.676Z,-1.00
2018-02-04T02:41:14.528Z,-1.00
2018-02-04T02:43:42.510Z,-1.00
2018-02-04T02:46:10.688Z,-1.00
2018-02-04T02:48:38.856Z,-1.00
2018-02-04T02:51:07.116Z,-1.00
2018-02-04T02:53:35.003Z,-1.00
2018-02-04T02:56:02.974Z,-1.00
2018-02-04T02:58:30.982Z,-1.00
2018-02-04T03:00:59.729Z,-1.00
2018-02-04T03:03:27.801Z,-1.00
2018-02-04T03:05:55.880Z,-1.00
2018-02-04T03:08:23.843Z,-1.00
2018-02-04T03:10:51.718Z,-1.00
2018-02-04T03:13:19.885Z,-1.00
2018-02-04T03:15:47.956Z,-1.00
2018-02-04T03:18:15.924Z,-1.10
2018-02-04T03:20:43.895Z,-1.10
2018-02-04T03:23:11.869Z,-1.00
2018-02-04T03:25:39.832Z,-1.00
2018-02-04T03:28:07.803Z,-1.00
2018-02-04T03:30:36.027Z,-1.00
2018-02-04T03:33:03.945Z,-1.00
2018-02-04T03:35:32.222Z,-1.00
2018-02-04T03:38:00.191Z,-1.10
2018-02-04T03:40:28.056Z,-1.10
2018-02-04T03:42:56.139Z,-1.10
2018-02-04T03:45:24.147Z,-1.20
2018-02-04T03:47:52.785Z,-1.20
2018-02-04T03:50:20.752Z,-1.30
2018-02-04T03:52:48.575Z,-1.20
2018-02-04T03:55:16.486Z,-1.30
2018-02-04T03:57:44.456Z,-1.30
2018-02-04T04:00:12.835Z,-1.30
2018-02-04T04:02:40.709Z,-1.30
2018-02-04T04:05:08.672Z,-1.30
2018-02-04T04:07:36.610Z,-1.30
2018-02-04T04:10:04.610Z,-1.30
2018-02-04T04:12:34.832Z,-1.30
2018-02-04T04:15:02.873Z,-1.30
2018-02-04T04:17:31.549Z,-1.40
2018-02-04T04:19:59.559Z,-1.30
2018-02-04T04:22:27.474Z,-1.40
2018-02-04T04:24:56.172Z,-1.40
2018-02-04T04:27:24.080Z,-1.40
2018-02-04T04:29:52.224Z,-1.50
2018-02-04T04:32:20.122Z,-1.50
2018-02-04T04:34:47.993Z,-1.50
2018-02-04T04:37:15.966Z,-1.50
2018-02-04T04:39:43.860Z,-1.60
2018-02-04T04:42:12.539Z,-1.60
2018-02-04T04:44:40.553Z,-1.60
2018-02-04T04:47:08.716Z,-1.70
2018-02-04T04:49:36.572Z,-1.70
2018-02-04T04:52:04.592Z,-1.70
2018-02-04T04:54:32.780Z,-1.70
2018-02-04T04:57:00.942Z,-1.70
2018-02-04T04:59:28.912Z,-1.70
2018-02-04T05:01:56.935Z,-1.70
2018-02-04T05:04:24.919Z,-1.70
2018-02-04T05:06:52.920Z,-1.70
2018-02-04T05:09:21.011Z,-1.70
2018-02-04T05:11:48.963Z,-1.70
2018-02-04T05:14:16.833Z,-1.70
2018-02-04T05:16:44.773Z,-1.70
2018-02-04T05:19:12.767Z,-1.70
2018-02-04T05:21:40.635Z,-1.70
2018-02-04T05:24:08.605Z,-1.70
2018-02-04T05:26:36.572Z,-1.70
2018-02-04T05:29:04.541Z,-1.70
2018-02-04T05:31:32.485Z,-1.70
2018-02-04T05:34:00.379Z,-1.70
2018-02-04T05:36:29.063Z,-1.80
2018-02-04T05:38:56.984Z,-1.80
2018-02-04T05:41:25.072Z,-1.80
2018-02-04T05:43:53.279Z,-1.90
2018-02-04T05:46:21.247Z,-1.90
2018-02-04T05:48:49.173Z,-1.90
2018-02-04T05:51:17.346Z,-1.90
2018-02-04T05:53:45.276Z,-1.90
2018-02-04T05:56:13.326Z,-1.90
2018-02-04T05:58:41.504Z,-1.90
2018-02-04T06:01:09.381Z,-1.90
2018-02-04T06:03:37.411Z,-2.00
2018-02-04T06:06:05.516Z,-2.00
2018-02-04T06:08:33.688Z,-2.00
2018-02-04T06:11:01.832Z,-2.10
2018-02-04T06:13:29.730Z,-2.10
2018-02-04T06:15:57.701Z,-2.20
2018-02-04T06:18:26.182Z,-2.20
2018-02-04T06:20:54.205Z,-2.10
2018-02-04T06:23:22.072Z,-2.10
2018-02-04T06:25:52.453Z,-2.20
2018-02-04T06:28:20.617Z,-2.20
2018-02-04T06:30:48.484Z,-2.20
2018-02-04T06:33:16.630Z,-2.20
2018-02-04T06:35:44.629Z,-2.30
2018-02-04T06:38:12.597Z,-2.40
2018-02-04T06:40:40.670Z,-2.30
2018-02-04T06:43:08.843Z,-2.40
2018-02-04T06:45:36.977Z,-2.40
2018-02-04T06:48:05.006Z,-2.40
2018-02-04T06:50:33.664Z,-2.50
2018-02-04T06:53:01.760Z,-2.50
2018-02-04T06:55:29.916Z,-2.50
2018-02-04T06:57:57.889Z,-2.50
2018-02-04T07:00:25.754Z,-2.00
2018-02-04T07:02:53.793Z,-1.80
2018-02-04T07:05:21.795Z,-1.50
2018-02-04T07:07:49.867Z,-1.40
2018-02-04T07:10:17.835Z,-1.50
2018-02-04T07:12:45.706Z,-1.70
2018-02-04T07:15:13.535Z,-1.90
2018-02-04T07:17:41.593Z,-2.00
2018-02-04T07:20:09.509Z,-2.10
2018-02-04T07:22:37.682Z,-2.10
2018-02-04T07:25:05.756Z,-2.10
2018-02-04T07:27:33.740Z,-2.10
2018-02-04T07:30:01.700Z,-2.10
2018-02-04T07:32:29.557Z,-2.10
2018-02-04T07:34:57.531Z,-2.00
2018-02-04T07:37:25.400Z,-2.10
2018-02-04T07:39:53.518Z,-2.10
2018-02-04T07:42:21.539Z,-2.10
2018-02-04T07:44:49.711Z,-2.20
2018-02-04T07:47:17.622Z,-2.20
2018-02-04T07:49:46.469Z,-2.20
2018-02-04T07:52:14.336Z,-2.20
2018-02-04T07:54:42.261Z,-2.20
2018-02-04T07:57:10.452Z,-2.10
2018-02-04T07:59:38.367Z,-2.00
2018-02-04T08:02:06.725Z,-1.80
2018-02-04T08:04:34.801Z,-1.60
2018-02-04T08:07:02.729Z,-1.50
2018-02-04T08:09:30.635Z,-1.40
2018-02-04T08:11:58.616Z,-1.50
2018-02-04T08:14:26.457Z,-1.60
2018-02-04T08:16:54.540Z,-1.80
2018-02-04T08:19:22.412Z,-1.80
2018-02-04T08:21:50.384Z,-1.90
2018-02-04T08:24:18.449Z,-2.00
2018-02-04T08:26:46.808Z,-2.00
2018-02-04T08:29:14.799Z,-2.00
2018-02-04T08:31:42.849Z,-2.00
2018-02-04T08:34:11.069Z,-1.90
2018-02-04T08:36:40.037Z,-1.70
2018-02-04T08:39:08.127Z,-1.70
2018-02-04T08:41:36.793Z,-1.40
2018-02-04T08:44:04.867Z,-1.40
2018-02-04T08:46:32.732Z,-1.30
2018-02-04T08:49:00.803Z,-1.20
2018-02-04T08:51:28.988Z,-1.20
2018-02-04T08:53:57.150Z,-1.30
2018-02-04T08:56:25.325Z,-1.30
2018-02-04T08:58:53.302Z,-1.40
2018-02-04T09:01:21.328Z,-1.40
2018-02-04T09:03:49.199Z,-1.40
2018-02-04T09:06:17.117Z,-1.20
2018-02-04T09:08:45.041Z,-1.10
2018-02-04T09:11:13.246Z,-0.90
2018-02-04T09:13:41.242Z,-0.70
2018-02-04T09:16:09.182Z,-0.60
2018-02-04T09:18:37.150Z,-0.40
2018-02-04T09:21:05.223Z,-0.40
2018-02-04T09:23:33.091Z,-0.50
2018-02-04T09:26:01.214Z,-0.60
2018-02-04T09:28:29.951Z,-0.70
2018-02-04T09:30:57.919Z,-0.70
2018-02-04T09:33:25.961Z,-0.70
2018-02-04T09:35:53.960Z,-0.70
2018-02-04T09:38:22.308Z,-0.70
2018-02-04T09:40:50.428Z,-0.60
2018-02-04T09:43:19.135Z,-0.50
2018-02-04T09:45:48.062Z,-0.30
2018-02-04T09:48:16.161Z,-0.40
2018-02-04T09:50:44.413Z,-0.10
2018-02-04T09:53:12.509Z,0.00
2018-02-04T09:55:40.840Z,0.30
2018-02-04T09:58:09.156Z,0.40
2018-02-04T10:00:37.135Z,0.40
2018-02-04T10:03:05.211Z,0.40
2018-02-04T10:05:33.176Z,0.60
2018-02-04T10:08:01.069Z,1.00
2018-02-04T10:10:29.217Z,1.30
2018-02-04T10:12:57.686Z,1.40
2018-02-04T10:15:25.776Z,1.50
2018-02-04T10:17:53.958Z,1.60
2018-02-04T10:20:22.015Z,1.70
2018-02-04T10:22:49.907Z,1.80
2018-02-04T10:25:17.956Z,2.00
2018-02-04T10:27:45.926Z,2.10
2018-02-04T10:30:13.924Z,2.20
2018-02-04T10:32:42.531Z,2.10
2018-02-04T10:35:10.387Z,2.00
2018-02-04T10:37:39.337Z,2.10
2018-02-04T10:40:07.440Z,2.00
2018-02-04T10:42:36.405Z,1.90
2018-02-04T10:45:04.267Z,1.90
2018-02-04T10:47:32.544Z,1.80
2018-02-04T10:50:00.514Z,1.80
2018-02-04T10:52:28.641Z,2.00
2018-02-04T10:54:56.861Z,2.20
2018-02-04T10:57:24.933Z,2.40
2018-02-04T10:59:53.209Z,2.60
2018-02-04T11:02:21.486Z,2.80
2018-02-04T11:04:49.663Z,2.80
2018-02-04T11:07:17.589Z,2.70
2018-02-04T11:09:45.769Z,2.70
2018-02-04T11:12:13.846Z,2.90
2018-02-04T11:14:41.900Z,3.10
2018-02-04T11:17:09.767Z,3.40
2018-02-04T11:19:37.972Z,3.60
2018-02-04T11:22:05.856Z,3.60
2018-02-04T11:24:33.928Z,3.80
2018-02-04T11:27:02.272Z,4.00
2018-02-04T11:29:31.351Z,4.20
2018-02-04T11:31:59.511Z,4.40
2018-02-04T11:34:28.424Z,4.60
2018-02-04T11:36:56.435Z,4.70
2018-02-04T11:39:24.514Z,4.70
2018-02-04T11:41:52.889Z,4.80
2018-02-04T11:44:20.985Z,5.00
2018-02-04T11:46:49.084Z,5.20
2018-02-04T11:49:17.215Z,5.20
2018-02-04T11:51:46.119Z,4.90
2018-02-04T11:54:14.328Z,4.90
2018-02-04T11:56:42.236Z,4.90
2018-02-04T11:59:10.382Z,5.10
2018-02-04T12:01:38.440Z,5.30
2018-02-04T12:04:06.292Z,5.40
2018-02-04T12:06:35.321Z,5.40
2018-02-04T12:09:03.532Z,5.40
2018-02-04T12:11:31.687Z,5.40
2018-02-04T12:13:59.509Z,5.30
2018-02-04T12:16:27.425Z,5.10
2018-02-04T12:18:55.529Z,5.10
2018-02-04T12:21:23.807Z,5.10
2018-02-04T12:23:52.888Z,5.30
2018-02-04T12:26:22.171Z,5.20
2018-02-04T12:28:50.303Z,5.30
2018-02-04T12:31:18.211Z,5.20
2018-02-04T12:33:46.071Z,5.20
2018-02-04T12:36:14.149Z,5.30
2018-02-04T12:38:42.529Z,5.50
2018-02-04T12:41:11.037Z,5.60
2018-02-04T12:43:39.971Z,6.00
2018-02-04T12:46:08.008Z,6.00
2018-02-04T12:48:36.865Z,6.70
2018-02-04T12:51:05.348Z,6.60
2018-02-04T12:53:33.416Z,6.70
2018-02-04T12:56:01.644Z,6.50
2018-02-04T12:58:29.562Z,6.80
2018-02-04T13:00:57.555Z,7.00
2018-02-04T13:03:25.600Z,7.50
2018-02-04T13:05:53.483Z,7.90
2018-02-04T13:08:21.438Z,7.90
2018-02-04T13:10:49.613Z,7.80
2018-02-04T13:13:17.683Z,7.90
2018-02-04T13:15:45.756Z,8.00
2018-02-04T13:18:13.620Z,8.00
2018-02-04T13:20:41.599Z,7.60
2018-02-04T13:23:09.570Z,7.20
2018-02-04T13:25:37.690Z,7.00
2018-02-04T13:28:05.603Z,6.70
2018-02-04T13:30:33.467Z,6.60
2018-02-04T13:33:01.278Z,6.60
2018-02-04T13:35:30.200Z,6.80
2018-02-04T13:37:58.564Z,6.70
2018-02-04T13:40:26.676Z,6.90
2018-02-04T13:42:54.543Z,6.90
2018-02-04T13:45:22.820Z,6.80
2018-02-04T13:47:50.720Z,6.70
2018-02-04T13:50:19.702Z,6.60
2018-02-04T13:52:47.753Z,6.60
2018-02-04T13:55:15.991Z,6.60
2018-02-04T13:57:43.997Z,6.60
2018-02-04T14:00:12.152Z,6.50
2018-02-04T14:02:40.243Z,6.50
2018-02-04T14:05:08.212Z,6.30
2018-02-04T14:07:36.376Z,6.20
2018-02-04T14:10:04.514Z,6.30
2018-02-04T14:12:32.656Z,6.30
2018-02-04T14:15:01.524Z,6.30
2018-02-04T14:17:29.697Z,6.20
2018-02-04T14:19:57.834Z,6.10
2018-02-04T14:22:26.455Z,6.00
2018-02-04T14:24:54.412Z,6.00
2018-02-04T14:27:22.496Z,5.90
2018-02-04T14:29:50.655Z,5.80
2018-02-04T14:32:18.709Z,5.80
2018-02-04T14:34:46.715Z,5.70
2018-02-04T14:37:14.780Z,5.50
2018-02-04T14:39:42.828Z,5.50
2018-02-04T14:42:11.016Z,5.50
2018-02-04T14:44:39.102Z,5.60
2018-02-04T14:47:07.267Z,5.80
2018-02-04T14:49:35.249Z,6.00
2018-02-04T14:52:03.318Z,6.00
2018-02-04T14:54:31.186Z,5.90
2018-02-04T14:56:59.262Z,5.70
2018-02-04T14:59:27.527Z,5.70
2018-02-04T15:01:55.568Z,5.60
2018-02-04T15:04:23.469Z,5.40
2018-02-04T15:06:51.808Z,5.20
2018-02-04T15:09:19.905Z,5.20
2018-02-04T15:11:48.197Z,5.10
2018-02-04T15:14:16.679Z,4.80
2018-02-04T15:16:44.805Z,4.60
2018-02-04T15:19:13.119Z,4.40
2018-02-04T15:21:41.016Z,4.30
2018-02-04T15:24:08.965Z,4.10
2018-02-04T15:26:37.258Z,4.10
2018-02-04T15:29:05.313Z,4.00
2018-02-04T15:31:33.729Z,3.90
2018-02-04T15:34:02.684Z,3.70
2018-02-04T15:36:30.677Z,3.70
2018-02-04T15:38:59.345Z,3.60
2018-02-04T15:41:27.714Z,3.60
2018-02-04T15:43:55.689Z,3.50
2018-02-04T15:46:23.865Z,3.30
2018-02-04T15:48:52.126Z,3.20
2018-02-04T15:51:20.312Z,3.00
2018-02-04T15:53:48.366Z,2.70
2018-02-04T15:56:16.464Z,2.60
2018-02-04T15:58:44.426Z,2.40
2018-02-04T16:01:13.523Z,2.20
2018-02-04T16:03:41.695Z,2.20
2018-02-04T16:06:09.971Z,2.10
2018-02-04T16:08:38.760Z,1.90
2018-02-04T16:11:06.729Z,1.90
2018-02-04T16:13:34.718Z,1.80
2018-02-04T16:16:02.769Z,1.70
2018-02-04T16:18:31.763Z,1.40
2018-02-04T16:21:00.246Z,1.40
2018-02-04T16:23:28.213Z,1.30
2018-02-04T16:25:56.184Z,1.20
2018-02-04T16:28:24.329Z,1.20
2018-02-04T16:30:52.551Z,1.20
2018-02-04T16:33:20.366Z,1.20
2018-02-04T16:35:48.367Z,1.20
2018-02-04T16:38:17.045Z,1.20
2018-02-04T16:40:44.897Z,1.20
2018-02-04T16:43:12.810Z,1.10
2018-02-04T16:45:40.662Z,1.10
2018-02-04T16:48:08.726Z,1.10
2018-02-04T16:50:36.868Z,1.00
2018-02-04T16:53:04.763Z,1.00
2018-02-04T16:55:32.838Z,1.00
2018-02-04T16:58:00.727Z,1.00
2018-02-04T17:00:28.676Z,1.00
2018-02-04T17:02:56.612Z,0.90
2018-02-04T17:05:24.913Z,0.80
2018-02-04T17:07:53.202Z,0.60
2018-02-04T17:10:21.180Z,0.50
2018-02-04T17:12:49.515Z,0.40
2018-02-04T17:15:17.415Z,0.30
2018-02-04T17:17:45.472Z,0.20
2018-02-04T17:20:13.468Z,0.20
2018-02-04T17:22:42.442Z,0.10
2018-02-04T17:25:10.296Z,0.10
2018-02-04T17:27:38.452Z,0.10
2018-02-04T17:30:06.693Z,0.10
2018-02-04T17:32:35.552Z,0.20
2018-02-04T17:35:03.717Z,0.10
2018-02-04T17:37:31.584Z,0.20
2018-02-04T17:39:59.579Z,0.10
2018-02-04T17:42:27.636Z,0.10
2018-02-04T17:44:55.497Z,0.00
2018-02-04T17:47:23.399Z,0.00
2018-02-04T17:49:52.671Z,-0.10
2018-02-04T17:52:20.743Z,-0.10
2018-02-04T17:54:48.843Z,-0.20
2018-02-04T17:57:17.705Z,-0.20
2018-02-04T17:59:45.796Z,-0.30
2018-02-04T18:02:13.929Z,-0.30
2018-02-04T18:04:41.791Z,-0.30
2018-02-04T18:07:09.887Z,-0.40
2018-02-04T18:09:37.959Z,-0.40
2018-02-04T18:12:06.033Z,-0.40
2018-02-04T18:14:34.226Z,-0.40
2018-02-04T18:17:03.608Z,-0.40
2018-02-04T18:19:31.894Z,-0.50
2018-02-04T18:22:00.060Z,-0.50
2018-02-04T18:24:28.138Z,-0.50
2018-02-04T18:26:56.201Z,-0.50
2018-02-04T18:29:24.444Z,-0.50
2018-02-04T18:31:52.632Z,-0.40
2018-02-04T18:34:20.828Z,-0.30
2018-02-04T18:36:48.894Z,-0.30
2018-02-04T18:39:16.873Z,-0.20
2018-02-04T18:41:44.947Z,-0.20
2018-02-04T18:44:13.209Z,-0.30
2018-02-04T18:46:41.289Z,-0.30
2018-02-04T18:49:09.287Z,-0.30
2018-02-04T18:51:38.005Z,-0.40
2018-02-04T18:54:05.913Z,-0.40
2018-02-04T18:56:33.780Z,-0.40
2018-02-04T18:59:01.756Z,-0.50
2018-02-04T19:01:30.718Z,-0.50
2018-02-04T19:03:58.715Z,-0.60
2018-02-04T19:06:26.680Z,-0.60
2018-02-04T19:08:54.620Z,-0.70
2018-02-04T19:11:22.580Z,-0.70
2018-02-04T19:13:50.493Z,-0.70
2018-02-04T19:16:18.455Z,-0.70
2018-02-04T19:18:46.527Z,-0.80
2018-02-04T19:21:14.505Z,-0.80
2018-02-04T19:23:42.531Z,-0.80
2018-02-04T19:26:10.536Z,-0.80
2018-02-04T19:28:38.664Z,-0.70
2018-02-04T19:31:06.660Z,-0.70
2018-02-04T19:33:34.675Z,-0.60
2018-02-04T19:36:02.823Z,-0.60
2018-02-04T19:38:30.871Z,-0.60
2018-02-04T19:40:58.832Z,-0.60
2018-02-04T19:43:26.941Z,-0.60
2018-02-04T19:45:54.907Z,-0.60
2018-02-04T19:48:22.881Z,-0.50
2018-02-04T19:50:51.182Z,-0.40
2018-02-04T19:53:20.367Z,-0.30
2018-02-04T19:55:48.291Z,-0.40
2018-02-04T19:58:16.511Z,-0.40
2018-02-04T20:00:44.648Z,-0.40
2018-02-04T20:03:12.772Z,-0.40
2018-02-04T20:05:41.631Z,-0.40
2018-02-04T20:08:09.700Z,-0.40
2018-02-04T20:10:37.655Z,-0.40
2018-02-04T20:13:05.538Z,-0.40
2018-02-04T20:15:33.711Z,-0.40
2018-02-04T20:18:01.587Z,-0.40
2018-02-04T20:20:29.423Z,-0.40
2018-02-04T20:22:57.574Z,-0.40
2018-02-04T20:25:25.544Z,-0.40
2018-02-04T20:27:53.483Z,-0.40
2018-02-04T20:30:21.773Z,-0.40
2018-02-04T20:33:01.408Z,-0.40
2018-02-04T20:35:30.279Z,-0.50
2018-02-04T20:37:58.195Z,-0.50
2018-02-04T20:40:26.534Z,-0.50
2018-02-04T20:42:55.198Z,-0.60
2018-02-04T20:45:23.478Z,-0.60
2018-02-04T20:47:51.431Z,-0.50
2018-02-04T20:50:19.525Z,-0.60
2018-02-04T20:52:47.586Z,-0.60
2018-02-04T20:55:15.767Z,-0.60
2018-02-04T20:57:44.036Z,-0.60
2018-02-04T21:00:12.015Z,-0.50
2018-02-04T21:02:40.268Z,-0.50
2018-02-04T21:05:08.141Z,-0.50
2018-02-04T21:07:36.136Z,-0.50
2018-02-04T21:10:04.193Z,-0.50
2018-02-04T21:12:32.371Z,-0.50
2018-02-04T21:15:00.440Z,-0.40
2018-02-04T21:17:28.573Z,-0.40
2018-02-04T21:19:56.581Z,-0.40
2018-02-04T21:22:24.817Z,-0.40
2018-02-04T21:24:52.698Z,-0.30
2018-02-04T21:27:20.896Z,-0.30
2018-02-04T21:29:48.927Z,-0.30
2018-02-04T21:32:16.915Z,-0.30
2018-02-04T21:34:45.312Z,-0.30
2018-02-04T21:37:13.287Z,-0.30
2018-02-04T21:39:41.471Z,-0.30
2018-02-04T21:42:09.533Z,-0.30
2018-02-04T21:44:37.706Z,-0.30
2018-02-04T21:47:05.888Z,-0.30
2018-02-04T21:49:34.032Z,-0.30
2018-02-04T21:52:02.093Z,-0.40
2018-02-04T21:54:30.016Z,-0.40
2018-02-04T21:56:57.941Z,-0.40
2018-02-04T21:59:25.935Z,-0.50
2018-02-04T22:01:54.296Z,-0.50
2018-02-04T22:04:22.095Z,-0.50
2018-02-04T22:06:50.932Z,-0.60
2018-02-04T22:09:18.900Z,-0.60
2018-02-04T22:11:47.097Z,-0.60
2018-02-04T22:14:15.500Z,-0.60
2018-02-04T22:16:43.354Z,-0.60
2018-02-04T22:19:11.311Z,-0.70
2018-02-04T22:21:39.292Z,-0.60
2018-02-04T22:24:07.161Z,-0.60
2018-02-04T22:26:35.560Z,-0.60
2018-02-04T22:29:03.509Z,-0.50
2018-02-04T22:31:31.785Z,-0.50
2018-02-04T22:33:59.855Z,-0.40
2018-02-04T22:36:27.835Z,-0.40
2018-02-04T22:38:55.716Z,-0.30
2018-02-04T22:41:23.752Z,-0.40
2018-02-04T22:43:51.639Z,-0.40
2018-02-04T22:46:19.900Z,-0.40
2018-02-04T22:48:48.101Z,-0.40
2018-02-04T22:51:16.280Z,-0.40
2018-02-04T22:53:44.328Z,-0.40
2018-02-04T22:56:12.627Z,-0.40
2018-02-04T22:58:40.792Z,-0.50
2018-02-04T23:01:08.812Z,-0.50
2018-02-04T23:03:36.818Z,-0.50
2018-02-04T23:06:04.843Z,-0.60
2018-02-04T23:08:32.756Z,-0.60
2018-02-04T23:11:00.828Z,-0.60
2018-02-04T23:13:28.980Z,-0.60
2018-02-04T23:15:57.293Z,-0.60
2018-02-04T23:18:25.316Z,-0.60
2018-02-04T23:20:53.424Z,-0.60
2018-02-04T23:23:21.540Z,-0.60
2018-02-04T23:25:50.371Z,-0.70
2018-02-04T23:28:18.457Z,-0.70
2018-02-04T23:30:46.493Z,-0.70
2018-02-04T23:33:14.577Z,-0.70
2018-02-04T23:35:42.778Z,-0.70
2018-02-04T23:38:10.850Z,-0.70
2018-02-04T23:40:38.900Z,-0.70
2018-02-04T23:43:07.101Z,-0.70
2018-02-04T23:45:35.061Z,-0.70
2018-02-04T23:48:02.908Z,-0.70
2018-02-04T23:50:31.308Z,-0.70
2018-02-04T23:52:59.586Z,-0.70
2018-02-04T23:55:27.756Z,-0.70
2018-02-04T23:57:55.728Z,-0.70
